createdAt,value
2022-10-07T00:00:27.713Z,40.62
2022-10-07T00:02:54.307Z,40.46
2022-10-07T00:05:20.894Z,40.17
2022-10-07T00:07:47.603Z,40.52
2022-10-07T00:10:14.232Z,40.00
2022-10-07T00:12:40.912Z,40.10
2022-10-07T00:15:08.607Z,39.83
2022-10-07T00:17:35.199Z,40.08
2022-10-07T00:20:01.783Z,39.89
2022-10-07T00:22:28.380Z,39.84
2022-10-07T00:24:54.982Z,40.34
2022-10-07T00:27:21.582Z,40.06
2022-10-07T00:29:48.200Z,40.06
2022-10-07T00:32:14.804Z,39.95
2022-10-07T00:34:41.382Z,40.33
2022-10-07T00:37:07.925Z,40.38
2022-10-07T00:39:34.390Z,40.54
2022-10-07T00:42:00.836Z,40.27
2022-10-07T00:44:33.847Z,40.48
2022-10-07T00:47:03.297Z,40.41
2022-10-07T00:49:31.597Z,40.65
2022-10-07T00:51:58.158Z,40.62
2022-10-07T00:54:24.609Z,40.73
2022-10-07T00:56:51.091Z,40.49
2022-10-07T00:59:17.820Z,40.53
2022-10-07T01:01:44.405Z,40.57
2022-10-07T01:04:11.318Z,40.63
2022-10-07T01:06:40.728Z,40.70
2022-10-07T01:09:07.589Z,40.62
2022-10-07T01:11:44.283Z,40.87
2022-10-07T01:14:30.889Z,40.82
2022-10-07T01:17:11.108Z,40.81
2022-10-07T01:19:59.514Z,40.77
2022-10-07T01:22:37.976Z,40.88
2022-10-07T01:25:16.677Z,40.93
2022-10-07T01:27:47.246Z,41.02
2022-10-07T01:30:13.808Z,41.14
2022-10-07T01:33:02.935Z,40.88
2022-10-07T01:35:32.699Z,41.02
2022-10-07T01:38:00.574Z,40.96
2022-10-07T01:40:32.488Z,40.96
2022-10-07T01:42:58.988Z,41.24
2022-10-07T01:45:25.936Z,41.09
2022-10-07T01:47:52.393Z,41.22
2022-10-07T01:50:20.889Z,41.37
2022-10-07T01:52:47.258Z,41.22
2022-10-07T01:55:29.047Z,41.29
2022-10-07T01:58:02.781Z,41.30
2022-10-07T02:00:29.308Z,41.01
2022-10-07T02:03:21.345Z,41.18
2022-10-07T02:05:54.416Z,41.23
2022-10-07T02:08:39.526Z,41.18
2022-10-07T02:11:16.052Z,41.39
2022-10-07T02:14:02.279Z,41.24
2022-10-07T02:16:30.110Z,41.12
2022-10-07T02:18:57.579Z,41.20
2022-10-07T02:21:26.971Z,41.29
2022-10-07T02:23:54.215Z,41.48
2022-10-07T02:26:21.383Z,41.44
2022-10-07T02:28:47.956Z,41.15
2022-10-07T02:31:17.767Z,41.40
2022-10-07T02:33:44.823Z,41.35
2022-10-07T02:36:13.466Z,41.39
2022-10-07T02:38:40.286Z,41.63
2022-10-07T02:41:33.041Z,41.25
2022-10-07T02:44:08.262Z,41.37
2022-10-07T02:46:38.721Z,41.25
2022-10-07T02:49:06.720Z,41.25
2022-10-07T02:51:42.409Z,41.29
2022-10-07T02:54:08.869Z,41.14
2022-10-07T02:56:37.023Z,41.37
2022-10-07T02:59:04.239Z,41.25
2022-10-07T03:01:34.194Z,40.95
2022-10-07T03:04:01.257Z,41.14
2022-10-07T03:06:30.873Z,41.02
2022-10-07T03:08:57.970Z,40.52
2022-10-07T03:11:24.540Z,40.47
2022-10-07T03:13:50.993Z,40.79
2022-10-07T03:16:17.557Z,40.47
2022-10-07T03:18:44.816Z,40.72
2022-10-07T03:21:11.293Z,40.53
2022-10-07T03:23:38.306Z,40.60
2022-10-07T03:26:04.882Z,40.68
2022-10-07T03:28:33.175Z,40.53
2022-10-07T03:31:06.557Z,40.96
2022-10-07T03:33:33.143Z,40.85
2022-10-07T03:35:59.577Z,40.63
2022-10-07T03:38:26.035Z,40.72
2022-10-07T03:40:52.479Z,40.87
2022-10-07T03:43:18.973Z,40.89
2022-10-07T03:45:45.973Z,40.52
2022-10-07T03:48:12.490Z,40.87
2022-10-07T03:50:39.650Z,40.64
2022-10-07T03:53:06.171Z,40.77
2022-10-07T03:55:32.627Z,40.81
2022-10-07T03:57:59.852Z,40.71
2022-10-07T04:00:26.541Z,40.75
2022-10-07T04:02:53.100Z,40.79
2022-10-07T04:05:20.644Z,40.69
2022-10-07T04:07:47.906Z,40.94
2022-10-07T04:10:15.309Z,40.74
2022-10-07T04:12:42.112Z,40.78
2022-10-07T04:15:08.971Z,40.62
2022-10-07T04:17:35.437Z,40.89
2022-10-07T04:20:01.910Z,40.91
2022-10-07T04:22:28.381Z,40.74
2022-10-07T04:25:13.243Z,41.04
2022-10-07T04:27:51.488Z,40.71
2022-10-07T04:30:18.605Z,40.64
2022-10-07T04:32:45.076Z,40.95
2022-10-07T04:35:11.534Z,40.66
2022-10-07T04:37:38.000Z,40.86
2022-10-07T04:40:05.210Z,40.62
2022-10-07T04:42:50.252Z,40.64
2022-10-07T04:45:16.697Z,40.59
2022-10-07T04:47:45.198Z,40.73
2022-10-07T04:50:12.590Z,40.77
2022-10-07T04:52:42.831Z,40.44
2022-10-07T04:55:12.140Z,40.63
2022-10-07T04:57:38.746Z,40.49
2022-10-07T05:00:06.060Z,40.41
2022-10-07T05:02:32.625Z,40.70
2022-10-07T05:04:59.788Z,40.79
2022-10-07T05:07:26.312Z,40.95
2022-10-07T05:09:52.925Z,40.77
2022-10-07T05:12:19.555Z,40.96
2022-10-07T05:14:46.055Z,40.96
2022-10-07T05:17:13.687Z,40.89
2022-10-07T05:19:40.143Z,40.74
2022-10-07T05:22:06.776Z,40.73
2022-10-07T05:24:33.353Z,40.67
2022-10-07T05:26:59.809Z,40.60
2022-10-07T05:29:26.274Z,40.48
2022-10-07T05:31:52.877Z,40.43
2022-10-07T05:34:20.219Z,40.49
2022-10-07T05:36:47.307Z,40.67
2022-10-07T05:39:14.518Z,40.58
2022-10-07T05:41:45.590Z,40.55
2022-10-07T05:44:12.361Z,40.27
2022-10-07T05:46:40.093Z,40.32
2022-10-07T05:49:06.532Z,40.14
2022-10-07T05:51:32.982Z,40.23
2022-10-07T05:53:59.606Z,40.22
2022-10-07T05:56:26.042Z,40.58
2022-10-07T05:58:52.638Z,40.32
2022-10-07T06:01:21.235Z,40.40
2022-10-07T06:03:52.115Z,40.63
2022-10-07T06:06:18.995Z,40.13
2022-10-07T06:08:45.876Z,39.86
2022-10-07T06:11:32.143Z,39.85
2022-10-07T06:13:58.802Z,39.72
2022-10-07T06:16:25.578Z,39.78
2022-10-07T06:18:52.595Z,39.61
2022-10-07T06:21:19.650Z,39.49
2022-10-07T06:23:52.799Z,39.37
2022-10-07T06:26:19.394Z,39.16
2022-10-07T06:28:45.939Z,39.57
2022-10-07T06:31:14.014Z,39.18
2022-10-07T06:33:40.596Z,39.25
2022-10-07T06:36:11.541Z,39.15
2022-10-07T06:38:38.251Z,38.73
2022-10-07T06:41:05.306Z,38.89
2022-10-07T06:43:32.834Z,38.57
2022-10-07T06:46:01.976Z,38.20
2022-10-07T06:48:29.294Z,37.83
2022-10-07T06:50:58.452Z,37.95
2022-10-07T06:53:25.271Z,37.83
2022-10-07T06:55:54.481Z,37.44
2022-10-07T06:58:21.544Z,37.39
2022-10-07T07:00:49.926Z,36.98
2022-10-07T07:03:17.008Z,36.65
2022-10-07T07:05:45.744Z,36.26
2022-10-07T07:08:16.729Z,35.49
2022-10-07T07:10:43.690Z,35.58
2022-10-07T07:13:10.404Z,35.77
2022-10-07T07:15:37.063Z,35.27
2022-10-07T07:18:04.440Z,35.47
2022-10-07T07:20:35.742Z,35.73
2022-10-07T07:23:02.292Z,35.91
2022-10-07T07:25:28.993Z,35.71
2022-10-07T07:27:57.935Z,35.75
2022-10-07T07:30:24.890Z,35.68
2022-10-07T07:32:51.372Z,35.67
2022-10-07T07:35:17.859Z,35.59
2022-10-07T07:37:44.611Z,35.33
2022-10-07T07:40:11.252Z,35.68
2022-10-07T07:42:37.715Z,35.43
2022-10-07T07:45:04.405Z,35.41
2022-10-07T07:47:30.941Z,35.24
2022-10-07T07:49:57.386Z,35.33
2022-10-07T07:52:25.508Z,35.45
2022-10-07T07:54:52.431Z,35.08
2022-10-07T07:57:19.544Z,35.25
2022-10-07T07:59:46.072Z,35.31
2022-10-07T08:02:12.619Z,35.36
2022-10-07T08:04:39.139Z,35.05
2022-10-07T08:07:05.609Z,35.01
2022-10-07T08:09:32.335Z,35.24
2022-10-07T08:11:58.917Z,35.17
2022-10-07T08:14:25.711Z,34.97
2022-10-07T08:16:52.168Z,35.29
2022-10-07T08:19:18.630Z,35.00
2022-10-07T08:21:45.101Z,35.15
2022-10-07T08:24:12.346Z,35.21
2022-10-07T08:26:38.817Z,35.26
2022-10-07T08:29:05.447Z,35.58
2022-10-07T08:31:32.035Z,35.56
2022-10-07T08:34:00.822Z,35.42
2022-10-07T08:36:28.227Z,35.47
2022-10-07T08:38:54.719Z,35.38
2022-10-07T08:41:58.909Z,35.64
2022-10-07T08:44:31.931Z,35.51
2022-10-07T08:47:02.617Z,35.37
2022-10-07T08:49:39.594Z,35.27
2022-10-07T08:52:22.164Z,35.45
2022-10-07T08:54:48.619Z,35.71
2022-10-07T08:57:22.614Z,35.56
2022-10-07T08:59:50.192Z,35.35
2022-10-07T09:02:30.936Z,35.54
2022-10-07T09:05:06.916Z,35.41
2022-10-07T09:07:38.717Z,35.47
2022-10-07T09:10:20.262Z,35.38
2022-10-07T09:12:49.122Z,35.68
2022-10-07T09:15:31.038Z,35.45
2022-10-07T09:18:03.571Z,35.45
2022-10-07T09:20:34.672Z,35.78
2022-10-07T09:23:01.147Z,35.99
2022-10-07T09:25:28.932Z,35.53
2022-10-07T09:27:55.510Z,35.54
2022-10-07T09:30:22.926Z,35.53
2022-10-07T09:32:51.266Z,35.45
2022-10-07T09:35:24.599Z,35.39
2022-10-07T09:37:59.460Z,35.82
2022-10-07T09:41:03.573Z,35.43
2022-10-07T09:43:31.189Z,35.50
2022-10-07T09:45:57.995Z,35.58
2022-10-07T09:48:29.356Z,35.90
2022-10-07T09:51:15.941Z,35.63
2022-10-07T09:54:00.040Z,35.49
2022-10-07T09:56:40.787Z,35.79
2022-10-07T09:59:16.089Z,35.46
2022-10-07T10:01:47.954Z,35.47
2022-10-07T10:04:18.648Z,35.39
2022-10-07T10:06:47.189Z,35.77
2022-10-07T10:09:23.770Z,35.57
2022-10-07T10:12:06.580Z,35.47
2022-10-07T10:14:37.575Z,36.05
2022-10-07T10:17:04.432Z,36.25
2022-10-07T10:19:34.964Z,35.77
2022-10-07T10:22:03.927Z,35.93
2022-10-07T10:24:52.778Z,35.78
2022-10-07T10:27:26.079Z,36.11
2022-10-07T10:30:09.383Z,36.20
2022-10-07T10:33:05.488Z,35.83
2022-10-07T10:35:32.308Z,35.91
2022-10-07T10:38:20.830Z,36.05
2022-10-07T10:40:58.861Z,36.17
2022-10-07T10:43:25.231Z,36.35
2022-10-07T10:46:06.561Z,36.56
2022-10-07T10:48:44.875Z,36.34
2022-10-07T10:51:48.988Z,36.24
2022-10-07T10:55:07.504Z,36.00
2022-10-07T10:57:33.837Z,36.09
2022-10-07T11:00:19.277Z,36.05
2022-10-07T11:03:03.551Z,36.34
2022-10-07T11:05:36.770Z,36.16
2022-10-07T11:08:06.118Z,36.25
2022-10-07T11:11:10.159Z,36.09
2022-10-07T11:13:59.898Z,35.85
2022-10-07T11:16:31.804Z,36.26
2022-10-07T11:19:00.851Z,35.57
2022-10-07T11:21:40.440Z,36.04
2022-10-07T11:24:24.269Z,35.66
2022-10-07T11:26:53.731Z,35.93
2022-10-07T11:29:22.922Z,35.73
2022-10-07T11:32:04.909Z,35.83
2022-10-07T11:34:44.787Z,35.08
2022-10-07T11:37:38.379Z,34.95
2022-10-07T11:40:05.779Z,34.99
2022-10-07T11:42:33.810Z,34.37
2022-10-07T11:45:03.510Z,34.33
2022-10-07T11:47:33.980Z,34.55
2022-10-07T11:50:16.756Z,34.48
2022-10-07T11:52:47.636Z,34.56
2022-10-07T11:55:29.131Z,34.09
2022-10-07T11:57:56.708Z,34.13
2022-10-07T12:00:31.624Z,34.14
2022-10-07T12:03:19.696Z,34.13
2022-10-07T12:05:49.155Z,34.15
2022-10-07T12:08:35.630Z,34.88
2022-10-07T12:11:10.943Z,35.58
2022-10-07T12:13:40.920Z,35.31
2022-10-07T12:16:32.327Z,35.13
2022-10-07T12:19:07.761Z,35.82
2022-10-07T12:21:59.273Z,36.46
2022-10-07T12:24:26.537Z,35.95
2022-10-07T12:27:12.760Z,35.84
2022-10-07T12:29:58.558Z,36.05
2022-10-07T12:32:53.723Z,35.66
2022-10-07T12:35:41.104Z,35.13
2022-10-07T12:38:10.563Z,35.45
2022-10-07T12:40:37.025Z,35.77
2022-10-07T12:43:37.379Z,35.85
2022-10-07T12:46:05.402Z,35.15
2022-10-07T12:48:36.707Z,34.44
2022-10-07T12:51:03.188Z,34.69
2022-10-07T12:53:30.412Z,34.83
2022-10-07T12:55:56.916Z,34.80
2022-10-07T12:58:42.017Z,34.54
2022-10-07T13:01:21.461Z,34.40
2022-10-07T13:04:22.597Z,34.46
2022-10-07T13:07:05.293Z,34.08
2022-10-07T13:09:52.550Z,34.45
2022-10-07T13:12:34.215Z,34.46
2022-10-07T13:15:23.825Z,34.24
2022-10-07T13:18:08.559Z,34.68
2022-10-07T13:20:55.416Z,34.93
2022-10-07T13:23:26.202Z,36.15
2022-10-07T13:25:55.419Z,35.94
2022-10-07T13:28:24.748Z,35.75
2022-10-07T13:30:51.778Z,35.39
2022-10-07T13:33:28.410Z,35.91
2022-10-07T13:36:08.280Z,35.81
2022-10-07T13:38:35.939Z,35.72
2022-10-07T13:41:09.468Z,35.89
2022-10-07T13:43:36.125Z,35.26
2022-10-07T13:46:02.687Z,35.24
2022-10-07T13:48:31.374Z,34.68
2022-10-07T13:50:58.498Z,35.14
2022-10-07T13:53:33.589Z,35.51
2022-10-07T13:56:34.391Z,35.52
2022-10-07T13:59:00.981Z,35.81
2022-10-07T14:01:29.323Z,35.87
2022-10-07T14:04:31.489Z,35.85
2022-10-07T14:07:08.453Z,35.47
2022-10-07T14:09:37.268Z,35.68
2022-10-07T14:12:07.386Z,36.03
2022-10-07T14:14:42.523Z,35.68
2022-10-07T14:17:22.960Z,36.07
2022-10-07T14:19:53.278Z,38.61
2022-10-07T14:22:42.031Z,37.50
2022-10-07T14:25:22.724Z,36.65
2022-10-07T14:27:49.147Z,36.53
2022-10-07T14:30:55.609Z,37.35
2022-10-07T14:33:46.121Z,37.41
2022-10-07T14:36:17.528Z,37.66
2022-10-07T14:38:46.347Z,37.85
2022-10-07T14:41:13.607Z,37.47
2022-10-07T14:43:40.975Z,37.50
2022-10-07T14:46:18.459Z,37.58
2022-10-07T14:48:45.441Z,37.80
2022-10-07T14:51:12.057Z,37.73
2022-10-07T14:53:39.151Z,37.71
2022-10-07T14:56:05.780Z,37.89
2022-10-07T14:58:32.498Z,37.85
2022-10-07T15:00:58.957Z,38.10
2022-10-07T15:03:25.410Z,38.01
2022-10-07T15:05:53.513Z,38.32
2022-10-07T15:08:22.335Z,38.29
2022-10-07T15:11:03.564Z,38.60
2022-10-07T15:13:30.403Z,38.48
2022-10-07T15:15:57.095Z,38.13
2022-10-07T15:18:23.615Z,38.59
2022-10-07T15:20:56.970Z,38.13
2022-10-07T15:23:23.897Z,38.54
2022-10-07T15:25:51.403Z,38.44
2022-10-07T15:28:18.314Z,38.60
2022-10-07T15:30:44.907Z,38.48
2022-10-07T15:33:12.481Z,38.38
2022-10-07T15:35:38.933Z,38.80
2022-10-07T15:38:05.398Z,38.76
2022-10-07T15:40:32.337Z,38.73
2022-10-07T15:42:59.109Z,39.05
2022-10-07T15:45:26.752Z,38.64
2022-10-07T15:47:56.909Z,38.84
2022-10-07T15:50:27.448Z,38.86
2022-10-07T15:52:54.710Z,39.08
2022-10-07T15:55:21.162Z,39.03
2022-10-07T15:57:47.848Z,38.98
2022-10-07T16:00:15.102Z,39.20
2022-10-07T16:02:41.746Z,39.44
2022-10-07T16:05:09.912Z,39.13
2022-10-07T16:07:36.529Z,39.11
2022-10-07T16:10:03.138Z,39.44
2022-10-07T16:12:29.595Z,39.21
2022-10-07T16:14:56.219Z,39.33
2022-10-07T16:17:22.678Z,39.60
2022-10-07T16:19:50.208Z,39.49
2022-10-07T16:22:16.730Z,39.26
2022-10-07T16:24:43.297Z,39.45
2022-10-07T16:27:09.755Z,39.66
2022-10-07T16:29:54.740Z,39.53
2022-10-07T16:32:21.213Z,39.43
2022-10-07T16:34:48.260Z,39.70
2022-10-07T16:37:15.382Z,39.71
2022-10-07T16:39:41.949Z,39.84
2022-10-07T16:42:08.633Z,39.67
2022-10-07T16:44:35.833Z,39.78
2022-10-07T16:47:02.927Z,39.63
2022-10-07T16:49:30.213Z,39.59
2022-10-07T16:51:57.178Z,39.78
2022-10-07T16:54:24.052Z,39.51
2022-10-07T16:56:52.241Z,39.76
2022-10-07T16:59:24.009Z,39.72
2022-10-07T17:01:52.641Z,39.78
2022-10-07T17:04:19.333Z,40.00
2022-10-07T17:06:46.119Z,39.91
2022-10-07T17:09:13.050Z,40.00
2022-10-07T17:11:39.583Z,39.93
2022-10-07T17:14:16.850Z,39.80
2022-10-07T17:16:51.022Z,40.03
2022-10-07T17:19:22.418Z,39.83
2022-10-07T17:21:49.285Z,40.12
2022-10-07T17:24:16.891Z,39.83
2022-10-07T17:26:43.985Z,39.89
2022-10-07T17:29:12.187Z,40.38
2022-10-07T17:31:40.582Z,40.74
2022-10-07T17:34:07.188Z,40.43
2022-10-07T17:36:34.983Z,40.36
2022-10-07T17:39:01.497Z,40.43
2022-10-07T17:41:28.800Z,40.39
2022-10-07T17:43:56.595Z,40.30
2022-10-07T17:46:23.976Z,40.53
2022-10-07T17:48:51.728Z,40.52
2022-10-07T17:51:19.600Z,40.71
2022-10-07T17:53:46.230Z,40.88
2022-10-07T17:56:14.242Z,40.63
2022-10-07T17:58:41.625Z,40.83
2022-10-07T18:01:11.555Z,40.95
2022-10-07T18:03:38.364Z,40.73
2022-10-07T18:06:07.183Z,41.12
2022-10-07T18:08:35.106Z,41.11
2022-10-07T18:11:02.859Z,41.25
2022-10-07T18:13:50.290Z,40.89
2022-10-07T18:16:20.878Z,41.22
2022-10-07T18:18:48.208Z,41.19
2022-10-07T18:21:14.808Z,41.16
2022-10-07T18:23:41.378Z,41.21
2022-10-07T18:26:10.050Z,41.33
2022-10-07T18:28:38.032Z,41.32
2022-10-07T18:31:10.821Z,41.32
2022-10-07T18:33:38.215Z,41.24
2022-10-07T18:36:09.441Z,41.30
2022-10-07T18:38:37.852Z,41.39
2022-10-07T18:41:09.229Z,41.41
2022-10-07T18:43:35.737Z,41.73
2022-10-07T18:46:18.053Z,41.59
2022-10-07T18:48:45.165Z,41.59
2022-10-07T18:51:12.820Z,41.41
2022-10-07T18:53:40.227Z,41.72
2022-10-07T18:56:08.352Z,41.47
2022-10-07T18:58:42.823Z,41.52
2022-10-07T19:01:16.971Z,41.53
2022-10-07T19:03:43.681Z,41.61
2022-10-07T19:06:16.274Z,41.72
2022-10-07T19:08:43.092Z,41.62
2022-10-07T19:11:11.091Z,41.54
2022-10-07T19:13:59.100Z,41.51
2022-10-07T19:16:27.237Z,41.30
2022-10-07T19:18:55.842Z,41.45
2022-10-07T19:21:23.090Z,41.41
2022-10-07T19:23:51.430Z,41.65
2022-10-07T19:26:21.465Z,41.83
2022-10-07T19:28:48.920Z,41.54
2022-10-07T19:31:29.704Z,41.72
2022-10-07T19:33:57.693Z,41.68
2022-10-07T19:36:24.151Z,41.69
2022-10-07T19:38:53.547Z,41.48
2022-10-07T19:41:24.003Z,41.51
2022-10-07T19:43:50.603Z,41.75
2022-10-07T19:46:17.546Z,41.57
2022-10-07T19:48:44.089Z,41.50
2022-10-07T19:51:12.271Z,41.68
2022-10-07T19:53:42.214Z,41.53
2022-10-07T19:56:16.752Z,41.62
2022-10-07T19:58:49.018Z,41.62
2022-10-07T20:01:17.061Z,41.69
2022-10-07T20:03:43.574Z,41.60
2022-10-07T20:06:11.295Z,41.54
2022-10-07T20:08:39.628Z,41.45
2022-10-07T20:11:06.440Z,41.45
2022-10-07T20:13:33.479Z,41.52
2022-10-07T20:16:14.736Z,41.57
2022-10-07T20:18:41.313Z,41.60
2022-10-07T20:21:11.237Z,41.56
2022-10-07T20:23:45.385Z,41.57
2022-10-07T20:26:18.660Z,41.08
2022-10-07T20:28:50.343Z,41.65
2022-10-07T20:31:18.211Z,41.49
2022-10-07T20:33:46.294Z,41.55
2022-10-07T20:36:15.176Z,41.58
2022-10-07T20:39:00.241Z,41.52
2022-10-07T20:41:45.610Z,41.60
2022-10-07T20:44:12.810Z,41.60
2022-10-07T20:46:39.297Z,41.45
2022-10-07T20:49:22.169Z,41.57
2022-10-07T20:51:52.568Z,41.55
2022-10-07T20:54:19.957Z,41.45
2022-10-07T20:56:46.858Z,41.57
2022-10-07T20:59:14.034Z,41.45
2022-10-07T21:01:40.726Z,41.26
2022-10-07T21:04:07.869Z,41.49
2022-10-07T21:06:34.418Z,41.62
2022-10-07T21:09:00.914Z,41.31
2022-10-07T21:11:27.621Z,41.34
2022-10-07T21:13:57.183Z,41.36
2022-10-07T21:16:24.226Z,41.38
2022-10-07T21:18:50.987Z,41.30
2022-10-07T21:21:17.754Z,41.58
2022-10-07T21:23:44.729Z,41.18
2022-10-07T21:26:11.334Z,41.35
2022-10-07T21:28:38.233Z,41.61
2022-10-07T21:31:08.276Z,41.55
2022-10-07T21:33:35.710Z,41.16
2022-10-07T21:36:06.950Z,41.05
2022-10-07T21:38:34.159Z,40.98
2022-10-07T21:41:01.110Z,41.26
2022-10-07T21:43:27.895Z,41.26
2022-10-07T21:45:58.794Z,41.06
2022-10-07T21:48:26.031Z,41.20
2022-10-07T21:50:56.232Z,41.21
2022-10-07T21:53:22.784Z,41.33
2022-10-07T21:55:49.764Z,41.21
2022-10-07T21:58:16.292Z,40.99
2022-10-07T22:00:43.200Z,41.30
2022-10-07T22:03:10.783Z,41.47
2022-10-07T22:05:40.066Z,41.15
2022-10-07T22:08:35.287Z,41.17
2022-10-07T22:11:05.353Z,41.56
2022-10-07T22:13:33.667Z,42.01
2022-10-07T22:16:01.969Z,41.82
2022-10-07T22:18:34.945Z,41.73
2022-10-07T22:21:10.942Z,41.88
2022-10-07T22:23:37.700Z,41.77
2022-10-07T22:26:04.480Z,41.51
2022-10-07T22:28:31.397Z,41.73
2022-10-07T22:30:59.017Z,42.04
2022-10-07T22:33:25.886Z,41.84
2022-10-07T22:35:52.326Z,41.81
2022-10-07T22:38:19.510Z,41.82
2022-10-07T22:40:45.958Z,41.91
2022-10-07T22:43:12.550Z,41.85
2022-10-07T22:45:39.051Z,41.82
2022-10-07T22:48:05.572Z,41.82
2022-10-07T22:50:32.279Z,41.91
2022-10-07T22:52:58.805Z,41.91
2022-10-07T22:55:26.246Z,41.91
2022-10-07T22:57:53.205Z,41.97
2022-10-07T23:00:20.946Z,42.01
2022-10-07T23:02:47.756Z,41.99
2022-10-07T23:05:14.540Z,41.66
2022-10-07T23:07:40.981Z,41.71
2022-10-07T23:10:07.953Z,41.59
2022-10-07T23:12:34.401Z,41.70
2022-10-07T23:15:00.952Z,42.00
2022-10-07T23:17:28.000Z,41.70
2022-10-07T23:19:54.517Z,41.77
2022-10-07T23:22:21.863Z,41.68
2022-10-07T23:24:48.377Z,41.85
2022-10-07T23:27:14.994Z,42.02
2022-10-07T23:29:41.476Z,41.73
2022-10-07T23:32:08.045Z,41.91
2022-10-07T23:34:34.488Z,41.82
2022-10-07T23:37:00.948Z,41.82
2022-10-07T23:39:27.659Z,41.68
2022-10-07T23:41:54.884Z,41.53
2022-10-07T23:44:22.967Z,41.88
2022-10-07T23:46:51.653Z,41.59
2022-10-07T23:49:18.218Z,41.61
2022-10-07T23:51:44.911Z,41.58
2022-10-07T23:54:11.398Z,41.63
2022-10-07T23:56:37.837Z,41.94
2022-10-07T23:59:04.345Z,41.82
